< < Back
Terminal Aerodrome Forecast


Current Version              Previous Versions:   1  2  3  4  5  6  7  8  9  

Terminal Aerodrome Forecast

923
FTUS42 KMLB 222100 AAA
TAFMCO
TAF AMD
KMCO 222101Z 2221/2318 02008KT P6SM SCT250
     FM230400 36006KT P6SM SCT250
     FM231400 04010KT P6SM SCT250=



Latest METAR

334
SAUS70 KWBC 230300 RRJ
MTRMCO
METAR KMCO 230253Z 02008KT 10SM BKN300 20/16 A3001 RMK AO2 SLP161
T02000156 51010


USA.gov is the U.S. government's official web portal to all federal, state and local government web resources and services.